sensor_id;sensor_type;location;lat;lon;timestamp;temperature;humidity
59881;DHT22;45751;51.380;10.326;2024-01-15T00:01:47;-0.30;99.90
59881;DHT22;45751;51.380;10.326;2024-01-15T00:04:13;-0.30;99.90
59881;DHT22;45751;51.380;10.326;2024-01-15T00:06:39;-0.40;99.90
59881;DHT22;45751;51.380;10.326;2024-01-15T00:09:05;-0.40;99.90
59881;DHT22;45751;51.380;10.326;2024-01-15T00:11:32;-0.40;99.90
59881;DHT22;45751;51.380;10.326;2024-01-15T00:13:58;-0.40;99.90
59881;DHT22;45751;51.380;10.326;2024-01-15T00:16:24;-0.40;99.90
59881;DHT22;45751;51.380;10.326;2024-01-15T00:18:50;-0.40;99.90
59881;DHT22;45751;51.380;10.326;2024-01-15T00:21:15;-0.40;99.90
59881;DHT22;45751;51.380;10.326;2024-01-15T00:23:44;-0.40;99.90
59881;DHT22;45751;51.380;10.326;2024-01-15T00:26:10;-0.40;99.90
59881;DHT22;45751;51.380;10.326;2024-01-15T00:28:37;-0.40;99.90
59881;DHT22;45751;51.380;10.326;2024-01-15T00:31:04;-0.40;99.90
59881;DHT22;45751;51.380;10.326;2024-01-15T00:33:30;-0.40;99.90
59881;DHT22;45751;51.380;10.326;2024-01-15T00:35:56;-0.40;99.90
59881;DHT22;45751;51.380;10.326;2024-01-15T00:38:21;-0.40;99.90
59881;DHT22;45751;51.380;10.326;2024-01-15T00:40:47;-0.30;99.90
59881;DHT22;45751;51.380;10.326;2024-01-15T00:43:13;-0.40;99.90
59881;DHT22;45751;51.380;10.326;2024-01-15T00:45:39;-0.40;99.90
59881;DHT22;45751;51.380;10.326;2024-01-15T00:48:05;-0.40;99.90
59881;DHT22;45751;51.380;10.326;2024-01-15T00:50:30;-0.40;99.90
59881;DHT22;45751;51.380;10.326;2024-01-15T00:52:56;-0.40;99.90
59881;DHT22;45751;51.380;10.326;2024-01-15T00:55:22;-0.40;99.90
59881;DHT22;45751;51.380;10.326;2024-01-15T00:57:47;-0.40;99.90
59881;DHT22;45751;51.380;10.326;2024-01-15T01:04:00;-0.40;99.90
59881;DHT22;45751;51.380;10.326;2024-01-15T01:06:26;-0.40;99.90
59881;DHT22;45751;51.380;10.326;2024-01-15T01:08:52;-0.40;99.90
59881;DHT22;45751;51.380;10.326;2024-01-15T01:11:17;-0.40;99.90
59881;DHT22;45751;51.380;10.326;2024-01-15T01:13:43;-0.40;99.90
59881;DHT22;45751;51.380;10.326;2024-01-15T01:16:09;-0.40;99.90
59881;DHT22;45751;51.380;10.326;2024-01-15T01:18:35;-0.40;99.90
59881;DHT22;45751;51.380;10.326;2024-01-15T01:21:00;-0.40;99.90
59881;DHT22;45751;51.380;10.326;2024-01-15T01:23:29;-0.50;99.90
59881;DHT22;45751;51.380;10.326;2024-01-15T01:25:55;-0.50;99.90
59881;DHT22;45751;51.380;10.326;2024-01-15T01:28:20;-0.50;99.90
59881;DHT22;45751;51.380;10.326;2024-01-15T01:30:46;-0.50;99.90
59881;DHT22;45751;51.380;10.326;2024-01-15T01:33:12;-0.50;99.90
59881;DHT22;45751;51.380;10.326;2024-01-15T01:35:37;-0.50;99.90
59881;DHT22;45751;51.380;10.326;2024-01-15T01:38:03;-0.50;99.90
59881;DHT22;45751;51.380;10.326;2024-01-15T01:40:29;-0.50;99.90
59881;DHT22;45751;51.380;10.326;2024-01-15T01:42:55;-0.50;99.90
59881;DHT22;45751;51.380;10.326;2024-01-15T01:45:21;-0.50;99.90
59881;DHT22;45751;51.380;10.326;2024-01-15T01:47:46;-0.50;99.90
59881;DHT22;45751;51.380;10.326;2024-01-15T01:50:13;-0.50;99.90
59881;DHT22;45751;51.380;10.326;2024-01-15T01:52:39;-0.50;99.90
59881;DHT22;45751;51.380;10.326;2024-01-15T01:55:06;-0.50;99.90
59881;DHT22;45751;51.380;10.326;2024-01-15T01:57:33;-0.50;99.90
59881;DHT22;45751;51.380;10.326;2024-01-15T02:00:00;-0.50;99.90
59881;DHT22;45751;51.380;10.326;2024-01-15T02:02:37;-0.60;99.90
59881;DHT22;45751;51.380;10.326;2024-01-15T02:05:04;-0.50;99.90
59881;DHT22;45751;51.380;10.326;2024-01-15T02:07:30;-0.50;99.90
59881;DHT22;45751;51.380;10.326;2024-01-15T02:09:56;-0.50;99.90
59881;DHT22;45751;51.380;10.326;2024-01-15T02:12:22;-0.60;99.90
59881;DHT22;45751;51.380;10.326;2024-01-15T02:14:48;-0.50;99.90
59881;DHT22;45751;51.380;10.326;2024-01-15T02:17:13;-0.50;99.90
59881;DHT22;45751;51.380;10.326;2024-01-15T02:19:39;-0.50;99.90
59881;DHT22;45751;51.380;10.326;2024-01-15T02:22:06;-0.40;99.90
59881;DHT22;45751;51.380;10.326;2024-01-15T02:24:32;-0.50;99.90
59881;DHT22;45751;51.380;10.326;2024-01-15T02:26:58;-0.50;99.90
59881;DHT22;45751;51.380;10.326;2024-01-15T02:29:23;-0.50;99.90
59881;DHT22;45751;51.380;10.326;2024-01-15T02:31:49;-0.50;99.90
59881;DHT22;45751;51.380;10.326;2024-01-15T02:34:15;-0.50;99.90
59881;DHT22;45751;51.380;10.326;2024-01-15T02:36:40;-0.50;99.90
59881;DHT22;45751;51.380;10.326;2024-01-15T02:39:06;-0.50;99.90
59881;DHT22;45751;51.380;10.326;2024-01-15T02:41:32;-0.40;99.90
59881;DHT22;45751;51.380;10.326;2024-01-15T02:43:57;-0.40;99.90
59881;DHT22;45751;51.380;10.326;2024-01-15T02:46:23;-0.40;99.90
59881;DHT22;45751;51.380;10.326;2024-01-15T02:48:49;-0.40;99.90
59881;DHT22;45751;51.380;10.326;2024-01-15T02:51:15;-0.40;99.90
59881;DHT22;45751;51.380;10.326;2024-01-15T02:53:40;-0.40;99.90
59881;DHT22;45751;51.380;10.326;2024-01-15T02:56:07;-0.40;99.90
59881;DHT22;45751;51.380;10.326;2024-01-15T02:58:33;-0.30;99.90
59881;DHT22;45751;51.380;10.326;2024-01-15T03:00:58;-0.40;99.90
59881;DHT22;45751;51.380;10.326;2024-01-15T03:03:24;-0.40;99.90
59881;DHT22;45751;51.380;10.326;2024-01-15T03:05:50;-0.30;99.90
59881;DHT22;45751;51.380;10.326;2024-01-15T03:08:16;-0.30;99.90
59881;DHT22;45751;51.380;10.326;2024-01-15T03:10:42;-0.30;99.90
59881;DHT22;45751;51.380;10.326;2024-01-15T03:13:08;-0.40;99.90
59881;DHT22;45751;51.380;10.326;2024-01-15T03:15:34;-0.30;99.90
59881;DHT22;45751;51.380;10.326;2024-01-15T03:18:00;-0.30;99.90
59881;DHT22;45751;51.380;10.326;2024-01-15T03:20:25;-0.30;99.90
59881;DHT22;45751;51.380;10.326;2024-01-15T03:22:51;-0.40;99.90
59881;DHT22;45751;51.380;10.326;2024-01-15T03:25:17;-0.30;99.90
59881;DHT22;45751;51.380;10.326;2024-01-15T03:27:42;-0.40;99.90
59881;DHT22;45751;51.380;10.326;2024-01-15T03:30:08;-0.40;99.90
59881;DHT22;45751;51.380;10.326;2024-01-15T03:32:34;-0.40;99.90
59881;DHT22;45751;51.380;10.326;2024-01-15T03:35:00;-0.40;99.90
59881;DHT22;45751;51.380;10.326;2024-01-15T03:37:26;-0.40;99.90
59881;DHT22;45751;51.380;10.326;2024-01-15T03:39:51;-0.40;99.90
59881;DHT22;45751;51.380;10.326;2024-01-15T03:42:17;-0.40;99.90
59881;DHT22;45751;51.380;10.326;2024-01-15T03:44:43;-0.40;99.90
59881;DHT22;45751;51.380;10.326;2024-01-15T03:47:09;-0.40;99.90
59881;DHT22;45751;51.380;10.326;2024-01-15T03:49:34;-0.40;99.90
59881;DHT22;45751;51.380;10.326;2024-01-15T03:52:00;-0.40;99.90
59881;DHT22;45751;51.380;10.326;2024-01-15T03:54:26;-0.40;99.90
59881;DHT22;45751;51.380;10.326;2024-01-15T03:56:52;-0.40;99.90
59881;DHT22;45751;51.380;10.326;2024-01-15T03:59:18;-0.40;99.90
59881;DHT22;45751;51.380;10.326;2024-01-15T04:01:49;-0.40;99.90
59881;DHT22;45751;51.380;10.326;2024-01-15T04:04:15;-0.40;99.90
59881;DHT22;45751;51.380;10.326;2024-01-15T04:06:41;-0.40;99.90
59881;DHT22;45751;51.380;10.326;2024-01-15T04:09:07;-0.40;99.90
59881;DHT22;45751;51.380;10.326;2024-01-15T04:11:32;-0.40;99.90
59881;DHT22;45751;51.380;10.326;2024-01-15T04:13:58;-0.40;99.90
59881;DHT22;45751;51.380;10.326;2024-01-15T04:16:24;-0.40;99.90
59881;DHT22;45751;51.380;10.326;2024-01-15T04:18:49;-0.40;99.90
59881;DHT22;45751;51.380;10.326;2024-01-15T04:21:17;-0.40;99.90
59881;DHT22;45751;51.380;10.326;2024-01-15T04:23:43;-0.40;99.90
59881;DHT22;45751;51.380;10.326;2024-01-15T04:26:09;-0.40;99.90
59881;DHT22;45751;51.380;10.326;2024-01-15T04:28:35;-0.40;99.90
59881;DHT22;45751;51.380;10.326;2024-01-15T04:31:01;-0.40;99.90
59881;DHT22;45751;51.380;10.326;2024-01-15T04:33:26;-0.40;99.90
59881;DHT22;45751;51.380;10.326;2024-01-15T04:35:52;-0.40;99.90
59881;DHT22;45751;51.380;10.326;2024-01-15T04:38:18;-0.40;99.90
59881;DHT22;45751;51.380;10.326;2024-01-15T04:40:43;-0.30;99.90
59881;DHT22;45751;51.380;10.326;2024-01-15T04:43:09;-0.30;99.90
59881;DHT22;45751;51.380;10.326;2024-01-15T04:45:35;-0.30;99.90
59881;DHT22;45751;51.380;10.326;2024-01-15T04:48:00;-0.30;99.90
59881;DHT22;45751;51.380;10.326;2024-01-15T04:50:26;-0.30;99.90
59881;DHT22;45751;51.380;10.326;2024-01-15T04:52:52;-0.30;99.90
59881;DHT22;45751;51.380;10.326;2024-01-15T04:55:17;-0.30;99.90
59881;DHT22;45751;51.380;10.326;2024-01-15T04:57:43;-0.30;99.90
59881;DHT22;45751;51.380;10.326;2024-01-15T05:00:09;-0.30;99.90
59881;DHT22;45751;51.380;10.326;2024-01-15T05:02:35;-0.30;99.90
59881;DHT22;45751;51.380;10.326;2024-01-15T05:05:01;-0.30;99.90
59881;DHT22;45751;51.380;10.326;2024-01-15T05:07:27;-0.30;99.90
59881;DHT22;45751;51.380;10.326;2024-01-15T05:09:52;-0.30;99.90
59881;DHT22;45751;51.380;10.326;2024-01-15T05:12:18;-0.30;99.90
59881;DHT22;45751;51.380;10.326;2024-01-15T05:14:44;-0.20;99.90
59881;DHT22;45751;51.380;10.326;2024-01-15T05:17:09;-0.30;99.90
59881;DHT22;45751;51.380;10.326;2024-01-15T05:19:35;-0.30;99.90
59881;DHT22;45751;51.380;10.326;2024-01-15T05:22:01;-0.30;99.90
59881;DHT22;45751;51.380;10.326;2024-01-15T05:24:26;-0.30;99.90
59881;DHT22;45751;51.380;10.326;2024-01-15T05:26:52;-0.30;99.90
59881;DHT22;45751;51.380;10.326;2024-01-15T05:29:18;-0.30;99.90
59881;DHT22;45751;51.380;10.326;2024-01-15T05:31:44;-0.30;99.90
59881;DHT22;45751;51.380;10.326;2024-01-15T05:34:09;-0.30;99.90
59881;DHT22;45751;51.380;10.326;2024-01-15T05:36:35;-0.30;99.90
59881;DHT22;45751;51.380;10.326;2024-01-15T05:39:01;-0.30;99.90
59881;DHT22;45751;51.380;10.326;2024-01-15T05:41:27;-0.30;99.90
59881;DHT22;45751;51.380;10.326;2024-01-15T05:43:52;-0.30;99.90
59881;DHT22;45751;51.380;10.326;2024-01-15T05:46:18;-0.30;99.90
59881;DHT22;45751;51.380;10.326;2024-01-15T05:48:43;-0.30;99.90
59881;DHT22;45751;51.380;10.326;2024-01-15T05:51:10;-0.30;99.90
59881;DHT22;45751;51.380;10.326;2024-01-15T05:53:35;-0.30;99.90
59881;DHT22;45751;51.380;10.326;2024-01-15T05:56:01;-0.30;99.90
59881;DHT22;45751;51.380;10.326;2024-01-15T05:58:27;-0.30;99.90
59881;DHT22;45751;51.380;10.326;2024-01-15T06:00:52;-0.30;99.90
59881;DHT22;45751;51.380;10.326;2024-01-15T06:03:18;-0.30;99.90
59881;DHT22;45751;51.380;10.326;2024-01-15T06:05:44;-0.30;99.90
59881;DHT22;45751;51.380;10.326;2024-01-15T06:08:10;-0.40;99.90
59881;DHT22;45751;51.380;10.326;2024-01-15T06:10:35;-0.40;99.90
59881;DHT22;45751;51.380;10.326;2024-01-15T06:13:01;-0.40;99.90
59881;DHT22;45751;51.380;10.326;2024-01-15T06:15:27;-0.40;99.90
59881;DHT22;45751;51.380;10.326;2024-01-15T06:17:53;-0.40;99.90
59881;DHT22;45751;51.380;10.326;2024-01-15T06:20:19;-0.40;99.90
59881;DHT22;45751;51.380;10.326;2024-01-15T06:22:44;-0.40;99.90
59881;DHT22;45751;51.380;10.326;2024-01-15T06:25:10;-0.40;99.90
59881;DHT22;45751;51.380;10.326;2024-01-15T06:27:36;-0.40;99.90
59881;DHT22;45751;51.380;10.326;2024-01-15T06:30:02;-0.40;99.90
59881;DHT22;45751;51.380;10.326;2024-01-15T06:32:27;-0.40;99.90
59881;DHT22;45751;51.380;10.326;2024-01-15T06:34:53;-0.50;99.90
59881;DHT22;45751;51.380;10.326;2024-01-15T06:37:19;-0.50;99.90
59881;DHT22;45751;51.380;10.326;2024-01-15T06:39:45;-0.50;99.90
59881;DHT22;45751;51.380;10.326;2024-01-15T06:42:11;-0.50;99.90
59881;DHT22;45751;51.380;10.326;2024-01-15T06:44:37;-0.50;99.90
59881;DHT22;45751;51.380;10.326;2024-01-15T06:47:02;-0.50;99.90
59881;DHT22;45751;51.380;10.326;2024-01-15T06:49:29;-0.50;99.90
59881;DHT22;45751;51.380;10.326;2024-01-15T06:51:55;-0.50;99.90
59881;DHT22;45751;51.380;10.326;2024-01-15T06:54:21;-0.50;99.90
59881;DHT22;45751;51.380;10.326;2024-01-15T06:56:47;-0.50;99.90
59881;DHT22;45751;51.380;10.326;2024-01-15T06:59:12;-0.50;99.90
59881;DHT22;45751;51.380;10.326;2024-01-15T07:01:38;-0.50;99.90
59881;DHT22;45751;51.380;10.326;2024-01-15T07:04:04;-0.60;99.90
59881;DHT22;45751;51.380;10.326;2024-01-15T07:06:29;-0.60;99.90
59881;DHT22;45751;51.380;10.326;2024-01-15T07:08:56;-0.60;99.90
59881;DHT22;45751;51.380;10.326;2024-01-15T07:11:22;-0.60;99.90
59881;DHT22;45751;51.380;10.326;2024-01-15T07:13:48;-0.60;99.90
59881;DHT22;45751;51.380;10.326;2024-01-15T07:16:13;-0.60;99.90
59881;DHT22;45751;51.380;10.326;2024-01-15T07:18:39;-0.70;99.90
59881;DHT22;45751;51.380;10.326;2024-01-15T07:21:05;-0.70;99.90
59881;DHT22;45751;51.380;10.326;2024-01-15T07:23:31;-0.70;99.90
59881;DHT22;45751;51.380;10.326;2024-01-15T07:25:57;-0.70;99.90
59881;DHT22;45751;51.380;10.326;2024-01-15T07:28:23;-0.70;99.90
59881;DHT22;45751;51.380;10.326;2024-01-15T07:30:49;-0.70;99.90
59881;DHT22;45751;51.380;10.326;2024-01-15T07:33:14;-0.70;99.90
59881;DHT22;45751;51.380;10.326;2024-01-15T07:35:40;-0.70;99.90
59881;DHT22;45751;51.380;10.326;2024-01-15T07:38:06;-0.70;99.90
59881;DHT22;45751;51.380;10.326;2024-01-15T07:40:31;-0.70;99.90
59881;DHT22;45751;51.380;10.326;2024-01-15T07:42:57;-0.70;99.90
59881;DHT22;45751;51.380;10.326;2024-01-15T07:45:23;-0.60;99.90
59881;DHT22;45751;51.380;10.326;2024-01-15T07:47:48;-0.60;99.90
59881;DHT22;45751;51.380;10.326;2024-01-15T07:50:14;-0.60;99.90
59881;DHT22;45751;51.380;10.326;2024-01-15T07:52:40;-0.60;99.90
59881;DHT22;45751;51.380;10.326;2024-01-15T07:55:09;-0.60;99.90
59881;DHT22;45751;51.380;10.326;2024-01-15T07:57:35;-0.60;99.90
59881;DHT22;45751;51.380;10.326;2024-01-15T08:00:02;-0.60;99.90
59881;DHT22;45751;51.380;10.326;2024-01-15T08:02:30;-0.60;99.90
59881;DHT22;45751;51.380;10.326;2024-01-15T08:04:57;-0.60;99.90
59881;DHT22;45751;51.380;10.326;2024-01-15T08:07:25;-0.60;99.90
59881;DHT22;45751;51.380;10.326;2024-01-15T08:09:51;-0.60;99.90
59881;DHT22;45751;51.380;10.326;2024-01-15T08:12:17;-0.60;99.90
59881;DHT22;45751;51.380;10.326;2024-01-15T08:14:43;-0.60;99.90
59881;DHT22;45751;51.380;10.326;2024-01-15T08:17:09;-0.60;99.90
59881;DHT22;45751;51.380;10.326;2024-01-15T08:19:34;-0.70;99.90
59881;DHT22;45751;51.380;10.326;2024-01-15T08:22:00;-0.70;99.90
59881;DHT22;45751;51.380;10.326;2024-01-15T08:24:26;-0.70;99.90
59881;DHT22;45751;51.380;10.326;2024-01-15T08:26:52;-0.70;99.90
59881;DHT22;45751;51.380;10.326;2024-01-15T08:29:17;-0.70;99.90
59881;DHT22;45751;51.380;10.326;2024-01-15T08:31:46;-0.60;99.90
59881;DHT22;45751;51.380;10.326;2024-01-15T08:34:12;-0.70;99.90
59881;DHT22;45751;51.380;10.326;2024-01-15T08:36:37;-0.60;99.90
59881;DHT22;45751;51.380;10.326;2024-01-15T08:39:03;-0.60;99.90
59881;DHT22;45751;51.380;10.326;2024-01-15T08:41:32;-0.60;99.90
59881;DHT22;45751;51.380;10.326;2024-01-15T08:43:58;-0.50;99.90
59881;DHT22;45751;51.380;10.326;2024-01-15T08:46:23;-0.50;99.90
59881;DHT22;45751;51.380;10.326;2024-01-15T08:48:49;-0.50;99.90
59881;DHT22;45751;51.380;10.326;2024-01-15T08:51:15;-0.50;99.90
59881;DHT22;45751;51.380;10.326;2024-01-15T08:53:41;-0.40;99.90
59881;DHT22;45751;51.380;10.326;2024-01-15T08:56:06;-0.40;99.90
59881;DHT22;45751;51.380;10.326;2024-01-15T08:58:34;-0.40;99.90
59881;DHT22;45751;51.380;10.326;2024-01-15T09:01:00;-0.40;99.90
59881;DHT22;45751;51.380;10.326;2024-01-15T09:03:26;-0.30;99.90
59881;DHT22;45751;51.380;10.326;2024-01-15T09:05:52;-0.30;99.90
59881;DHT22;45751;51.380;10.326;2024-01-15T09:08:17;-0.30;99.90
59881;DHT22;45751;51.380;10.326;2024-01-15T09:10:43;-0.40;99.90
59881;DHT22;45751;51.380;10.326;2024-01-15T09:13:09;-0.40;99.90
59881;DHT22;45751;51.380;10.326;2024-01-15T09:15:35;-0.40;99.90
59881;DHT22;45751;51.380;10.326;2024-01-15T09:18:00;-0.40;99.90
59881;DHT22;45751;51.380;10.326;2024-01-15T09:20:27;-0.40;99.90
59881;DHT22;45751;51.380;10.326;2024-01-15T09:22:53;-0.40;99.90
59881;DHT22;45751;51.380;10.326;2024-01-15T09:25:19;-0.40;99.90
59881;DHT22;45751;51.380;10.326;2024-01-15T09:27:45;-0.40;99.90
59881;DHT22;45751;51.380;10.326;2024-01-15T09:30:11;-0.40;99.90
59881;DHT22;45751;51.380;10.326;2024-01-15T09:32:37;-0.30;99.90
59881;DHT22;45751;51.380;10.326;2024-01-15T09:35:03;-0.30;99.90
59881;DHT22;45751;51.380;10.326;2024-01-15T09:37:29;-0.40;99.90
59881;DHT22;45751;51.380;10.326;2024-01-15T09:39:54;-0.40;99.90
59881;DHT22;45751;51.380;10.326;2024-01-15T09:42:23;-0.30;99.90
59881;DHT22;45751;51.380;10.326;2024-01-15T09:44:51;-0.30;99.90
59881;DHT22;45751;51.380;10.326;2024-01-15T09:47:18;-0.30;99.90
59881;DHT22;45751;51.380;10.326;2024-01-15T09:49:44;-0.30;99.90
59881;DHT22;45751;51.380;10.326;2024-01-15T09:52:11;-0.30;99.90
59881;DHT22;45751;51.380;10.326;2024-01-15T09:54:37;-0.30;99.90
59881;DHT22;45751;51.380;10.326;2024-01-15T09:57:04;-0.20;99.90
59881;DHT22;45751;51.380;10.326;2024-01-15T09:59:31;-0.20;99.90
59881;DHT22;45751;51.380;10.326;2024-01-15T10:01:58;-0.20;99.90
59881;DHT22;45751;51.380;10.326;2024-01-15T10:04:26;-0.10;99.90
59881;DHT22;45751;51.380;10.326;2024-01-15T10:06:52;-0.10;99.90
59881;DHT22;45751;51.380;10.326;2024-01-15T10:09:19;-0.10;99.90
59881;DHT22;45751;51.380;10.326;2024-01-15T10:11:45;-0.10;99.90
59881;DHT22;45751;51.380;10.326;2024-01-15T10:14:11;-0.10;99.90
59881;DHT22;45751;51.380;10.326;2024-01-15T10:16:43;-0.10;99.90
59881;DHT22;45751;51.380;10.326;2024-01-15T10:19:09;-0.10;99.90
59881;DHT22;45751;51.380;10.326;2024-01-15T10:21:35;-0.10;99.90
59881;DHT22;45751;51.380;10.326;2024-01-15T10:24:02;-0.10;99.90
59881;DHT22;45751;51.380;10.326;2024-01-15T10:26:29;-0.20;99.90
59881;DHT22;45751;51.380;10.326;2024-01-15T10:28:54;-0.10;99.90
59881;DHT22;45751;51.380;10.326;2024-01-15T10:31:20;-0.20;99.90
59881;DHT22;45751;51.380;10.326;2024-01-15T10:33:50;-0.20;99.90
59881;DHT22;45751;51.380;10.326;2024-01-15T10:36:16;-0.20;99.90
59881;DHT22;45751;51.380;10.326;2024-01-15T10:38:46;-0.20;99.90
59881;DHT22;45751;51.380;10.326;2024-01-15T10:41:12;-0.20;99.90
59881;DHT22;45751;51.380;10.326;2024-01-15T10:43:38;-0.20;99.90
59881;DHT22;45751;51.380;10.326;2024-01-15T10:46:06;-0.30;99.90
59881;DHT22;45751;51.380;10.326;2024-01-15T10:48:33;-0.20;99.90
59881;DHT22;45751;51.380;10.326;2024-01-15T10:51:01;-0.20;99.90
59881;DHT22;45751;51.380;10.326;2024-01-15T10:53:37;-0.20;99.90
59881;DHT22;45751;51.380;10.326;2024-01-15T10:56:05;-0.20;99.90
59881;DHT22;45751;51.380;10.326;2024-01-15T10:58:31;-0.20;99.90
59881;DHT22;45751;51.380;10.326;2024-01-15T11:00:58;-0.10;99.90
59881;DHT22;45751;51.380;10.326;2024-01-15T11:03:25;-0.10;99.90
59881;DHT22;45751;51.380;10.326;2024-01-15T11:05:50;0.00;99.90
59881;DHT22;45751;51.380;10.326;2024-01-15T11:08:18;0.00;99.90
59881;DHT22;45751;51.380;10.326;2024-01-15T11:10:50;0.00;99.90
59881;DHT22;45751;51.380;10.326;2024-01-15T11:13:40;0.00;99.90
59881;DHT22;45751;51.380;10.326;2024-01-15T11:16:07;0.10;99.90
59881;DHT22;45751;51.380;10.326;2024-01-15T11:18:39;0.10;99.90
59881;DHT22;45751;51.380;10.326;2024-01-15T11:23:49;0.10;99.90
59881;DHT22;45751;51.380;10.326;2024-01-15T11:34:15;0.10;99.90
59881;DHT22;45751;51.380;10.326;2024-01-15T11:42:00;0.10;99.90
59881;DHT22;45751;51.380;10.326;2024-01-15T11:44:27;0.10;99.90
59881;DHT22;45751;51.380;10.326;2024-01-15T11:46:59;0.10;99.90
59881;DHT22;45751;51.380;10.326;2024-01-15T11:51:55;0.10;99.90
59881;DHT22;45751;51.380;10.326;2024-01-15T11:54:24;0.10;99.90
59881;DHT22;45751;51.380;10.326;2024-01-15T11:56:50;0.10;99.90
59881;DHT22;45751;51.380;10.326;2024-01-15T11:59:16;0.10;99.90
59881;DHT22;45751;51.380;10.326;2024-01-15T12:01:42;0.10;99.90
59881;DHT22;45751;51.380;10.326;2024-01-15T12:04:08;0.10;99.90
59881;DHT22;45751;51.380;10.326;2024-01-15T12:06:34;0.10;99.90
59881;DHT22;45751;51.380;10.326;2024-01-15T12:09:07;0.10;99.90
59881;DHT22;45751;51.380;10.326;2024-01-15T12:11:35;0.10;99.90
59881;DHT22;45751;51.380;10.326;2024-01-15T12:14:01;0.10;99.90
59881;DHT22;45751;51.380;10.326;2024-01-15T12:16:27;0.10;99.90
59881;DHT22;45751;51.380;10.326;2024-01-15T12:18:53;0.10;99.90
59881;DHT22;45751;51.380;10.326;2024-01-15T12:21:19;0.10;99.90
59881;DHT22;45751;51.380;10.326;2024-01-15T12:23:49;0.10;99.90
59881;DHT22;45751;51.380;10.326;2024-01-15T12:26:14;0.10;99.90
59881;DHT22;45751;51.380;10.326;2024-01-15T12:28:40;0.10;99.90
59881;DHT22;45751;51.380;10.326;2024-01-15T12:31:06;0.10;99.90
59881;DHT22;45751;51.380;10.326;2024-01-15T12:33:33;0.10;99.90
59881;DHT22;45751;51.380;10.326;2024-01-15T12:35:59;0.10;99.90
59881;DHT22;45751;51.380;10.326;2024-01-15T12:38:24;0.10;99.90
59881;DHT22;45751;51.380;10.326;2024-01-15T12:40:51;0.10;99.90
59881;DHT22;45751;51.380;10.326;2024-01-15T12:43:17;0.10;99.90
59881;DHT22;45751;51.380;10.326;2024-01-15T12:45:43;0.20;99.90
59881;DHT22;45751;51.380;10.326;2024-01-15T12:48:09;0.20;99.90
59881;DHT22;45751;51.380;10.326;2024-01-15T12:50:34;0.20;99.90
59881;DHT22;45751;51.380;10.326;2024-01-15T12:53:01;0.20;99.90
59881;DHT22;45751;51.380;10.326;2024-01-15T12:55:27;0.20;99.90
59881;DHT22;45751;51.380;10.326;2024-01-15T12:57:53;0.20;99.90
59881;DHT22;45751;51.380;10.326;2024-01-15T13:00:20;0.20;99.90
59881;DHT22;45751;51.380;10.326;2024-01-15T13:02:46;0.20;99.90
59881;DHT22;45751;51.380;10.326;2024-01-15T13:05:12;0.20;99.90
59881;DHT22;45751;51.380;10.326;2024-01-15T13:07:38;0.20;99.90
59881;DHT22;45751;51.380;10.326;2024-01-15T13:10:05;0.20;99.90
59881;DHT22;45751;51.380;10.326;2024-01-15T13:12:31;0.20;99.90
59881;DHT22;45751;51.380;10.326;2024-01-15T13:14:58;0.20;99.90
59881;DHT22;45751;51.380;10.326;2024-01-15T13:17:23;0.20;99.90
59881;DHT22;45751;51.380;10.326;2024-01-15T13:19:49;0.20;99.90
59881;DHT22;45751;51.380;10.326;2024-01-15T13:22:15;0.20;99.90
59881;DHT22;45751;51.380;10.326;2024-01-15T13:24:41;0.20;99.90
59881;DHT22;45751;51.380;10.326;2024-01-15T13:27:08;0.20;99.90
59881;DHT22;45751;51.380;10.326;2024-01-15T13:29:34;0.20;99.90
59881;DHT22;45751;51.380;10.326;2024-01-15T13:32:00;0.20;99.90
59881;DHT22;45751;51.380;10.326;2024-01-15T13:34:26;0.20;99.90
59881;DHT22;45751;51.380;10.326;2024-01-15T13:36:51;0.20;99.90
59881;DHT22;45751;51.380;10.326;2024-01-15T13:39:19;0.20;99.90
59881;DHT22;45751;51.380;10.326;2024-01-15T13:41:48;0.20;99.90
59881;DHT22;45751;51.380;10.326;2024-01-15T13:44:14;0.20;99.90
59881;DHT22;45751;51.380;10.326;2024-01-15T13:46:40;0.10;99.90
59881;DHT22;45751;51.380;10.326;2024-01-15T13:49:06;0.20;99.90
59881;DHT22;45751;51.380;10.326;2024-01-15T13:51:32;0.10;99.90
59881;DHT22;45751;51.380;10.326;2024-01-15T13:53:58;0.20;99.90
59881;DHT22;45751;51.380;10.326;2024-01-15T13:56:23;0.10;99.90
59881;DHT22;45751;51.380;10.326;2024-01-15T13:58:49;0.20;99.90
59881;DHT22;45751;51.380;10.326;2024-01-15T14:01:15;0.20;99.90
59881;DHT22;45751;51.380;10.326;2024-01-15T14:03:43;0.20;99.90
59881;DHT22;45751;51.380;10.326;2024-01-15T14:06:09;0.20;99.90
59881;DHT22;45751;51.380;10.326;2024-01-15T14:08:36;0.20;99.90
59881;DHT22;45751;51.380;10.326;2024-01-15T14:11:03;0.20;99.90
59881;DHT22;45751;51.380;10.326;2024-01-15T14:13:29;0.20;99.90
59881;DHT22;45751;51.380;10.326;2024-01-15T14:15:55;0.30;99.90
59881;DHT22;45751;51.380;10.326;2024-01-15T14:18:21;0.30;99.90
59881;DHT22;45751;51.380;10.326;2024-01-15T14:20:47;0.30;99.90
59881;DHT22;45751;51.380;10.326;2024-01-15T14:23:13;0.30;99.90
59881;DHT22;45751;51.380;10.326;2024-01-15T14:25:39;0.30;99.90
59881;DHT22;45751;51.380;10.326;2024-01-15T14:28:05;0.30;99.90
59881;DHT22;45751;51.380;10.326;2024-01-15T14:30:31;0.30;99.90
59881;DHT22;45751;51.380;10.326;2024-01-15T14:32:56;0.30;99.90
59881;DHT22;45751;51.380;10.326;2024-01-15T14:35:22;0.30;99.90
59881;DHT22;45751;51.380;10.326;2024-01-15T14:37:48;0.30;99.90
59881;DHT22;45751;51.380;10.326;2024-01-15T14:40:14;0.30;99.90
59881;DHT22;45751;51.380;10.326;2024-01-15T14:42:41;0.30;99.90
59881;DHT22;45751;51.380;10.326;2024-01-15T14:45:07;0.20;99.90
59881;DHT22;45751;51.380;10.326;2024-01-15T14:47:40;0.30;99.90
59881;DHT22;45751;51.380;10.326;2024-01-15T14:50:07;0.20;99.90
59881;DHT22;45751;51.380;10.326;2024-01-15T14:52:34;0.20;99.90
59881;DHT22;45751;51.380;10.326;2024-01-15T14:55:00;0.20;99.90
59881;DHT22;45751;51.380;10.326;2024-01-15T14:57:26;0.20;99.90
59881;DHT22;45751;51.380;10.326;2024-01-15T14:59:51;0.20;99.90
59881;DHT22;45751;51.380;10.326;2024-01-15T15:02:18;0.20;99.90
59881;DHT22;45751;51.380;10.326;2024-01-15T15:04:43;0.20;99.90
59881;DHT22;45751;51.380;10.326;2024-01-15T15:07:10;0.20;99.90
59881;DHT22;45751;51.380;10.326;2024-01-15T15:09:36;0.10;99.90
59881;DHT22;45751;51.380;10.326;2024-01-15T15:12:06;0.10;99.90
59881;DHT22;45751;51.380;10.326;2024-01-15T15:14:32;0.10;99.90
59881;DHT22;45751;51.380;10.326;2024-01-15T15:17:04;0.10;99.90
59881;DHT22;45751;51.380;10.326;2024-01-15T15:19:31;0.10;99.90
59881;DHT22;45751;51.380;10.326;2024-01-15T15:21:57;0.10;99.90
59881;DHT22;45751;51.380;10.326;2024-01-15T15:24:23;0.10;99.90
59881;DHT22;45751;51.380;10.326;2024-01-15T15:26:49;0.10;99.90
59881;DHT22;45751;51.380;10.326;2024-01-15T15:29:14;0.10;99.90
59881;DHT22;45751;51.380;10.326;2024-01-15T15:31:42;0.10;99.90
59881;DHT22;45751;51.380;10.326;2024-01-15T15:34:08;0.10;99.90
59881;DHT22;45751;51.380;10.326;2024-01-15T15:36:35;0.10;99.90